sensor_id;sensor_type;location;lat;lon;timestamp;temperature;humidity
7214;DHT22;3648;50.614;13.830;2023-08-06T00:01:55;16.60;1.00
7214;DHT22;3648;50.614;13.830;2023-08-06T00:04:22;16.60;1.00
7214;DHT22;3648;50.614;13.830;2023-08-06T00:06:48;16.60;1.00
7214;DHT22;3648;50.614;13.830;2023-08-06T00:09:15;16.60;1.00
7214;DHT22;3648;50.614;13.830;2023-08-06T00:11:42;16.60;1.00
7214;DHT22;3648;50.614;13.830;2023-08-06T00:14:13;16.60;1.00
7214;DHT22;3648;50.614;13.830;2023-08-06T00:16:43;16.60;1.00
7214;DHT22;3648;50.614;13.830;2023-08-06T00:19:11;16.60;1.00
7214;DHT22;3648;50.614;13.830;2023-08-06T00:21:37;16.60;1.00
7214;DHT22;3648;50.614;13.830;2023-08-06T00:24:05;16.60;1.00
7214;DHT22;3648;50.614;13.830;2023-08-06T00:26:31;16.60;1.00
7214;DHT22;3648;50.614;13.830;2023-08-06T00:28:58;16.60;1.00
7214;DHT22;3648;50.614;13.830;2023-08-06T00:31:27;16.60;1.00
7214;DHT22;3648;50.614;13.830;2023-08-06T00:33:54;16.60;1.00
7214;DHT22;3648;50.614;13.830;2023-08-06T00:36:20;16.50;1.00
7214;DHT22;3648;50.614;13.830;2023-08-06T00:38:47;16.50;1.00
7214;DHT22;3648;50.614;13.830;2023-08-06T00:41:15;16.50;1.00
7214;DHT22;3648;50.614;13.830;2023-08-06T00:43:42;16.50;1.00
7214;DHT22;3648;50.614;13.830;2023-08-06T00:46:09;16.50;1.00
7214;DHT22;3648;50.614;13.830;2023-08-06T00:48:38;16.50;1.00
7214;DHT22;3648;50.614;13.830;2023-08-06T00:51:05;16.50;1.00
7214;DHT22;3648;50.614;13.830;2023-08-06T00:53:32;16.50;1.00
7214;DHT22;3648;50.614;13.830;2023-08-06T00:55:59;16.50;1.00
7214;DHT22;3648;50.614;13.830;2023-08-06T00:58:26;16.40;1.00
7214;DHT22;3648;50.614;13.830;2023-08-06T01:00:54;16.40;1.00
7214;DHT22;3648;50.614;13.830;2023-08-06T01:03:20;16.40;1.00
7214;DHT22;3648;50.614;13.830;2023-08-06T01:05:49;16.40;1.00
7214;DHT22;3648;50.614;13.830;2023-08-06T01:08:28;16.40;1.00
7214;DHT22;3648;50.614;13.830;2023-08-06T01:11:07;16.40;1.00
7214;DHT22;3648;50.614;13.830;2023-08-06T01:13:41;16.40;1.00
7214;DHT22;3648;50.614;13.830;2023-08-06T01:16:09;16.40;1.00
7214;DHT22;3648;50.614;13.830;2023-08-06T01:18:36;16.40;1.00
7214;DHT22;3648;50.614;13.830;2023-08-06T01:21:06;16.40;1.00
7214;DHT22;3648;50.614;13.830;2023-08-06T07:31:40;16.50;1.00
7214;DHT22;3648;50.614;13.830;2023-08-06T07:34:07;16.60;1.00
7214;DHT22;3648;50.614;13.830;2023-08-06T07:36:34;16.40;1.00
7214;DHT22;3648;50.614;13.830;2023-08-06T07:39:01;16.60;1.00
7214;DHT22;3648;50.614;13.830;2023-08-06T07:41:28;16.60;1.00
7214;DHT22;3648;50.614;13.830;2023-08-06T07:43:55;16.60;1.00
7214;DHT22;3648;50.614;13.830;2023-08-06T07:46:21;16.70;1.00
7214;DHT22;3648;50.614;13.830;2023-08-06T07:48:50;16.70;1.00
7214;DHT22;3648;50.614;13.830;2023-08-06T07:51:17;16.80;1.00
7214;DHT22;3648;50.614;13.830;2023-08-06T07:53:45;16.80;1.00
7214;DHT22;3648;50.614;13.830;2023-08-06T07:56:12;16.80;1.00
7214;DHT22;3648;50.614;13.830;2023-08-06T07:58:39;16.70;1.00
7214;DHT22;3648;50.614;13.830;2023-08-06T08:01:06;16.70;1.00
7214;DHT22;3648;50.614;13.830;2023-08-06T08:03:33;16.70;1.00
7214;DHT22;3648;50.614;13.830;2023-08-06T08:06:02;16.70;1.00
7214;DHT22;3648;50.614;13.830;2023-08-06T08:08:28;16.70;1.00
7214;DHT22;3648;50.614;13.830;2023-08-06T08:10:55;16.70;1.00
7214;DHT22;3648;50.614;13.830;2023-08-06T08:13:24;16.70;1.00
7214;DHT22;3648;50.614;13.830;2023-08-06T08:15:57;16.80;1.00
7214;DHT22;3648;50.614;13.830;2023-08-06T08:18:24;16.80;1.00
7214;DHT22;3648;50.614;13.830;2023-08-06T08:20:51;16.80;1.00
7214;DHT22;3648;50.614;13.830;2023-08-06T08:23:19;16.80;1.00
7214;DHT22;3648;50.614;13.830;2023-08-06T08:25:46;16.80;1.00
7214;DHT22;3648;50.614;13.830;2023-08-06T08:28:13;16.80;1.00
7214;DHT22;3648;50.614;13.830;2023-08-06T08:30:40;16.90;1.00
7214;DHT22;3648;50.614;13.830;2023-08-06T08:33:07;17.00;1.00
7214;DHT22;3648;50.614;13.830;2023-08-06T08:35:35;16.90;1.00
7214;DHT22;3648;50.614;13.830;2023-08-06T08:38:03;17.00;1.00
7214;DHT22;3648;50.614;13.830;2023-08-06T08:40:32;17.00;1.00
7214;DHT22;3648;50.614;13.830;2023-08-06T08:43:00;17.00;1.00
7214;DHT22;3648;50.614;13.830;2023-08-06T08:45:29;16.90;1.00
7214;DHT22;3648;50.614;13.830;2023-08-06T08:47:56;17.00;1.00
7214;DHT22;3648;50.614;13.830;2023-08-06T08:50:23;17.00;1.00
7214;DHT22;3648;50.614;13.830;2023-08-06T08:52:51;17.00;1.00
7214;DHT22;3648;50.614;13.830;2023-08-06T08:55:18;17.00;1.00
7214;DHT22;3648;50.614;13.830;2023-08-06T08:57:49;16.90;1.00
7214;DHT22;3648;50.614;13.830;2023-08-06T09:00:16;17.00;1.00
7214;DHT22;3648;50.614;13.830;2023-08-06T09:02:44;16.90;1.00
7214;DHT22;3648;50.614;13.830;2023-08-06T09:05:13;16.90;1.00
7214;DHT22;3648;50.614;13.830;2023-08-06T09:07:42;16.80;1.00
7214;DHT22;3648;50.614;13.830;2023-08-06T09:10:11;16.80;1.00
7214;DHT22;3648;50.614;13.830;2023-08-06T09:12:41;16.70;1.00
7214;DHT22;3648;50.614;13.830;2023-08-06T09:15:10;16.70;1.00
7214;DHT22;3648;50.614;13.830;2023-08-06T09:17:37;16.70;1.00
7214;DHT22;3648;50.614;13.830;2023-08-06T09:20:11;16.60;1.00
7214;DHT22;3648;50.614;13.830;2023-08-06T09:22:39;16.60;1.00
7214;DHT22;3648;50.614;13.830;2023-08-06T09:25:07;16.60;1.00
7214;DHT22;3648;50.614;13.830;2023-08-06T09:27:35;16.60;1.00
7214;DHT22;3648;50.614;13.830;2023-08-06T09:30:03;16.60;1.00
7214;DHT22;3648;50.614;13.830;2023-08-06T09:32:45;16.60;1.00
7214;DHT22;3648;50.614;13.830;2023-08-06T09:35:15;16.60;1.00
7214;DHT22;3648;50.614;13.830;2023-08-06T09:37:43;16.70;1.00
7214;DHT22;3648;50.614;13.830;2023-08-06T09:40:24;16.80;1.00
7214;DHT22;3648;50.614;13.830;2023-08-06T09:42:51;16.80;1.00
7214;DHT22;3648;50.614;13.830;2023-08-06T09:45:18;16.90;1.00
7214;DHT22;3648;50.614;13.830;2023-08-06T09:47:48;16.90;1.00
7214;DHT22;3648;50.614;13.830;2023-08-06T09:50:17;17.00;1.00
7214;DHT22;3648;50.614;13.830;2023-08-06T09:52:45;17.00;1.00
7214;DHT22;3648;50.614;13.830;2023-08-06T09:55:13;17.10;1.00
7214;DHT22;3648;50.614;13.830;2023-08-06T09:57:40;17.10;1.00
7214;DHT22;3648;50.614;13.830;2023-08-06T10:00:08;17.10;1.00
7214;DHT22;3648;50.614;13.830;2023-08-06T10:02:37;17.10;1.00
7214;DHT22;3648;50.614;13.830;2023-08-06T10:05:07;17.20;1.00
7214;DHT22;3648;50.614;13.830;2023-08-06T10:07:34;17.20;1.00
7214;DHT22;3648;50.614;13.830;2023-08-06T10:10:02;17.10;1.00
7214;DHT22;3648;50.614;13.830;2023-08-06T10:12:32;17.20;1.00
7214;DHT22;3648;50.614;13.830;2023-08-06T10:15:04;17.20;1.00
7214;DHT22;3648;50.614;13.830;2023-08-06T10:17:33;17.20;1.00
7214;DHT22;3648;50.614;13.830;2023-08-06T10:20:01;17.20;1.00
7214;DHT22;3648;50.614;13.830;2023-08-06T10:22:33;17.30;1.00
7214;DHT22;3648;50.614;13.830;2023-08-06T10:25:00;17.20;1.00
7214;DHT22;3648;50.614;13.830;2023-08-06T10:27:32;17.10;1.00
7214;DHT22;3648;50.614;13.830;2023-08-06T10:30:22;17.20;1.00
7214;DHT22;3648;50.614;13.830;2023-08-06T10:32:49;17.20;1.00
7214;DHT22;3648;50.614;13.830;2023-08-06T10:35:31;17.20;1.00
7214;DHT22;3648;50.614;13.830;2023-08-06T10:38:02;17.10;1.00
7214;DHT22;3648;50.614;13.830;2023-08-06T10:40:30;17.20;1.00
7214;DHT22;3648;50.614;13.830;2023-08-06T10:42:59;17.20;1.00
7214;DHT22;3648;50.614;13.830;2023-08-06T10:45:26;17.20;1.00
7214;DHT22;3648;50.614;13.830;2023-08-06T10:47:55;17.10;1.00
7214;DHT22;3648;50.614;13.830;2023-08-06T10:50:23;17.10;1.00
7214;DHT22;3648;50.614;13.830;2023-08-06T10:52:50;17.10;1.00
7214;DHT22;3648;50.614;13.830;2023-08-06T10:55:26;17.00;1.00
7214;DHT22;3648;50.614;13.830;2023-08-06T10:57:54;17.20;1.00
7214;DHT22;3648;50.614;13.830;2023-08-06T11:00:22;17.30;1.00
7214;DHT22;3648;50.614;13.830;2023-08-06T11:02:49;17.30;1.00
7214;DHT22;3648;50.614;13.830;2023-08-06T11:05:17;17.40;1.00
7214;DHT22;3648;50.614;13.830;2023-08-06T11:07:44;17.40;1.00
7214;DHT22;3648;50.614;13.830;2023-08-06T11:10:12;17.40;1.00
7214;DHT22;3648;50.614;13.830;2023-08-06T11:12:41;17.50;1.00
7214;DHT22;3648;50.614;13.830;2023-08-06T11:15:09;17.50;1.00
7214;DHT22;3648;50.614;13.830;2023-08-06T11:17:39;17.60;1.00
7214;DHT22;3648;50.614;13.830;2023-08-06T11:20:08;17.60;1.00
7214;DHT22;3648;50.614;13.830;2023-08-06T11:22:36;17.60;1.00
7214;DHT22;3648;50.614;13.830;2023-08-06T11:25:05;17.80;1.00
7214;DHT22;3648;50.614;13.830;2023-08-06T11:27:32;17.70;1.00
7214;DHT22;3648;50.614;13.830;2023-08-06T11:30:01;17.70;1.00
7214;DHT22;3648;50.614;13.830;2023-08-06T11:32:28;17.80;1.00
7214;DHT22;3648;50.614;13.830;2023-08-06T11:34:55;17.80;1.00
7214;DHT22;3648;50.614;13.830;2023-08-06T11:37:24;17.80;1.00
7214;DHT22;3648;50.614;13.830;2023-08-06T11:39:52;17.80;1.00
7214;DHT22;3648;50.614;13.830;2023-08-06T11:42:19;17.90;1.00
7214;DHT22;3648;50.614;13.830;2023-08-06T11:44:48;17.80;1.00
7214;DHT22;3648;50.614;13.830;2023-08-06T11:47:20;17.80;1.00
7214;DHT22;3648;50.614;13.830;2023-08-06T11:49:59;17.80;1.00
7214;DHT22;3648;50.614;13.830;2023-08-06T11:52:28;17.90;1.00
7214;DHT22;3648;50.614;13.830;2023-08-06T11:55:02;17.90;1.00
7214;DHT22;3648;50.614;13.830;2023-08-06T11:57:32;18.00;1.00
7214;DHT22;3648;50.614;13.830;2023-08-06T12:00:04;18.00;1.00
7214;DHT22;3648;50.614;13.830;2023-08-06T12:02:34;18.00;1.00
7214;DHT22;3648;50.614;13.830;2023-08-06T12:05:05;18.00;1.00
7214;DHT22;3648;50.614;13.830;2023-08-06T12:07:40;18.10;1.00
7214;DHT22;3648;50.614;13.830;2023-08-06T12:10:08;18.10;99.90
7214;DHT22;3648;50.614;13.830;2023-08-06T12:12:36;18.10;99.90
7214;DHT22;3648;50.614;13.830;2023-08-06T12:15:05;18.20;1.00
7214;DHT22;3648;50.614;13.830;2023-08-06T12:17:34;18.20;1.00
7214;DHT22;3648;50.614;13.830;2023-08-06T12:20:04;18.20;99.90
7214;DHT22;3648;50.614;13.830;2023-08-06T12:22:32;18.30;1.00
7214;DHT22;3648;50.614;13.830;2023-08-06T12:25:01;18.30;99.90
7214;DHT22;3648;50.614;13.830;2023-08-06T12:27:29;18.30;99.90
7214;DHT22;3648;50.614;13.830;2023-08-06T12:29:56;18.30;99.90
7214;DHT22;3648;50.614;13.830;2023-08-06T12:32:23;18.30;99.90
7214;DHT22;3648;50.614;13.830;2023-08-06T12:34:54;18.30;99.90
7214;DHT22;3648;50.614;13.830;2023-08-06T12:37:21;18.30;99.90
7214;DHT22;3648;50.614;13.830;2023-08-06T12:39:49;18.40;99.90
7214;DHT22;3648;50.614;13.830;2023-08-06T12:42:15;18.40;99.90
7214;DHT22;3648;50.614;13.830;2023-08-06T12:44:43;18.40;99.90
7214;DHT22;3648;50.614;13.830;2023-08-06T12:47:10;18.50;99.90
7214;DHT22;3648;50.614;13.830;2023-08-06T12:49:37;18.50;99.90
7214;DHT22;3648;50.614;13.830;2023-08-06T12:52:06;18.40;99.90
7214;DHT22;3648;50.614;13.830;2023-08-06T12:54:35;18.50;99.90
7214;DHT22;3648;50.614;13.830;2023-08-06T12:57:03;18.60;99.90
7214;DHT22;3648;50.614;13.830;2023-08-06T12:59:31;18.60;99.90
7214;DHT22;3648;50.614;13.830;2023-08-06T13:01:59;18.60;99.90
7214;DHT22;3648;50.614;13.830;2023-08-06T13:04:26;18.60;1.00
7214;DHT22;3648;50.614;13.830;2023-08-06T13:06:53;18.70;99.90
7214;DHT22;3648;50.614;13.830;2023-08-06T13:09:21;18.60;99.90
7214;DHT22;3648;50.614;13.830;2023-08-06T13:11:48;18.60;99.90
7214;DHT22;3648;50.614;13.830;2023-08-06T13:14:16;18.60;99.90
7214;DHT22;3648;50.614;13.830;2023-08-06T13:16:44;18.70;99.90
7214;DHT22;3648;50.614;13.830;2023-08-06T13:19:11;18.80;99.90
7214;DHT22;3648;50.614;13.830;2023-08-06T13:21:59;18.80;99.90
7214;DHT22;3648;50.614;13.830;2023-08-06T13:24:29;18.90;99.90
7214;DHT22;3648;50.614;13.830;2023-08-06T13:26:56;18.90;99.90
7214;DHT22;3648;50.614;13.830;2023-08-06T13:29:25;18.90;99.90
7214;DHT22;3648;50.614;13.830;2023-08-06T13:31:52;18.90;99.90
7214;DHT22;3648;50.614;13.830;2023-08-06T13:34:19;18.90;99.90
7214;DHT22;3648;50.614;13.830;2023-08-06T13:36:46;19.00;99.90
7214;DHT22;3648;50.614;13.830;2023-08-06T13:39:13;19.00;99.90
7214;DHT22;3648;50.614;13.830;2023-08-06T13:41:44;19.00;99.90
7214;DHT22;3648;50.614;13.830;2023-08-06T13:44:11;19.00;99.90
7214;DHT22;3648;50.614;13.830;2023-08-06T13:46:40;19.00;99.90
7214;DHT22;3648;50.614;13.830;2023-08-06T13:49:07;19.00;99.90
7214;DHT22;3648;50.614;13.830;2023-08-06T13:51:34;19.00;99.90
7214;DHT22;3648;50.614;13.830;2023-08-06T13:54:01;19.00;99.90
7214;DHT22;3648;50.614;13.830;2023-08-06T13:56:29;19.00;99.90
7214;DHT22;3648;50.614;13.830;2023-08-06T13:58:57;19.00;99.90
7214;DHT22;3648;50.614;13.830;2023-08-06T14:01:24;19.00;99.90
7214;DHT22;3648;50.614;13.830;2023-08-06T14:03:51;19.10;99.90
7214;DHT22;3648;50.614;13.830;2023-08-06T14:06:19;19.10;99.90
7214;DHT22;3648;50.614;13.830;2023-08-06T14:08:46;19.10;99.90
7214;DHT22;3648;50.614;13.830;2023-08-06T14:11:13;19.10;99.90
7214;DHT22;3648;50.614;13.830;2023-08-06T14:13:39;19.10;99.90
7214;DHT22;3648;50.614;13.830;2023-08-06T14:16:08;19.10;99.90
7214;DHT22;3648;50.614;13.830;2023-08-06T14:18:35;19.20;99.90
7214;DHT22;3648;50.614;13.830;2023-08-06T14:21:04;19.20;99.90
7214;DHT22;3648;50.614;13.830;2023-08-06T14:23:31;19.20;99.90
7214;DHT22;3648;50.614;13.830;2023-08-06T14:25:58;19.30;99.90
7214;DHT22;3648;50.614;13.830;2023-08-06T14:28:25;19.30;99.90
7214;DHT22;3648;50.614;13.830;2023-08-06T14:30:52;19.30;99.90
7214;DHT22;3648;50.614;13.830;2023-08-06T14:33:20;19.20;99.90
7214;DHT22;3648;50.614;13.830;2023-08-06T14:35:47;19.30;99.90
7214;DHT22;3648;50.614;13.830;2023-08-06T14:38:14;19.30;99.90
7214;DHT22;3648;50.614;13.830;2023-08-06T14:40:42;19.30;99.90
7214;DHT22;3648;50.614;13.830;2023-08-06T14:43:10;19.40;99.90
7214;DHT22;3648;50.614;13.830;2023-08-06T14:45:38;19.40;99.90
7214;DHT22;3648;50.614;13.830;2023-08-06T14:48:05;19.40;99.90
7214;DHT22;3648;50.614;13.830;2023-08-06T14:50:33;19.50;99.90
7214;DHT22;3648;50.614;13.830;2023-08-06T14:53:01;19.50;99.90
7214;DHT22;3648;50.614;13.830;2023-08-06T14:55:28;19.60;99.90
7214;DHT22;3648;50.614;13.830;2023-08-06T14:57:55;19.60;99.90
7214;DHT22;3648;50.614;13.830;2023-08-06T15:00:22;19.60;99.90
7214;DHT22;3648;50.614;13.830;2023-08-06T15:02:49;19.60;99.90
7214;DHT22;3648;50.614;13.830;2023-08-06T15:05:16;19.60;99.90
7214;DHT22;3648;50.614;13.830;2023-08-06T15:07:45;19.70;99.90
7214;DHT22;3648;50.614;13.830;2023-08-06T15:10:13;19.70;99.90
7214;DHT22;3648;50.614;13.830;2023-08-06T15:12:40;19.70;99.90
7214;DHT22;3648;50.614;13.830;2023-08-06T15:15:08;19.70;99.90
7214;DHT22;3648;50.614;13.830;2023-08-06T15:17:35;19.80;99.90
7214;DHT22;3648;50.614;13.830;2023-08-06T15:20:03;19.80;99.90
7214;DHT22;3648;50.614;13.830;2023-08-06T15:22:30;19.80;99.90
7214;DHT22;3648;50.614;13.830;2023-08-06T15:24:59;19.80;99.90
7214;DHT22;3648;50.614;13.830;2023-08-06T15:27:26;19.80;99.90
7214;DHT22;3648;50.614;13.830;2023-08-06T15:29:53;19.90;99.90
7214;DHT22;3648;50.614;13.830;2023-08-06T15:32:20;19.90;99.90
7214;DHT22;3648;50.614;13.830;2023-08-06T15:34:48;19.90;99.90
7214;DHT22;3648;50.614;13.830;2023-08-06T15:37:15;19.80;99.90
7214;DHT22;3648;50.614;13.830;2023-08-06T15:39:42;19.90;99.90
7214;DHT22;3648;50.614;13.830;2023-08-06T15:42:11;19.90;99.90
7214;DHT22;3648;50.614;13.830;2023-08-06T15:44:38;19.90;99.90
7214;DHT22;3648;50.614;13.830;2023-08-06T15:47:05;19.90;99.90
7214;DHT22;3648;50.614;13.830;2023-08-06T15:49:32;19.90;99.90
7214;DHT22;3648;50.614;13.830;2023-08-06T15:51:59;19.90;99.90
7214;DHT22;3648;50.614;13.830;2023-08-06T15:54:26;19.90;99.90
7214;DHT22;3648;50.614;13.830;2023-08-06T15:56:53;19.90;99.90
7214;DHT22;3648;50.614;13.830;2023-08-06T15:59:23;19.90;99.90
7214;DHT22;3648;50.614;13.830;2023-08-06T16:01:51;19.90;99.90
7214;DHT22;3648;50.614;13.830;2023-08-06T16:04:18;19.90;99.90
7214;DHT22;3648;50.614;13.830;2023-08-06T16:06:45;19.90;99.90
7214;DHT22;3648;50.614;13.830;2023-08-06T16:09:13;19.80;99.90
7214;DHT22;3648;50.614;13.830;2023-08-06T16:11:41;19.80;99.90
7214;DHT22;3648;50.614;13.830;2023-08-06T16:14:08;19.70;99.90
7214;DHT22;3648;50.614;13.830;2023-08-06T16:16:36;19.80;99.90
7214;DHT22;3648;50.614;13.830;2023-08-06T16:19:03;19.70;99.90
7214;DHT22;3648;50.614;13.830;2023-08-06T16:21:30;19.60;99.90
7214;DHT22;3648;50.614;13.830;2023-08-06T16:23:58;19.50;99.90
7214;DHT22;3648;50.614;13.830;2023-08-06T16:26:25;19.40;99.90
7214;DHT22;3648;50.614;13.830;2023-08-06T16:28:52;19.40;99.90
7214;DHT22;3648;50.614;13.830;2023-08-06T16:31:19;19.30;99.90
7214;DHT22;3648;50.614;13.830;2023-08-06T16:33:47;19.10;99.90
7214;DHT22;3648;50.614;13.830;2023-08-06T16:36:14;19.00;99.90
7214;DHT22;3648;50.614;13.830;2023-08-06T16:38:41;18.90;99.90
7214;DHT22;3648;50.614;13.830;2023-08-06T16:41:08;18.80;99.90
7214;DHT22;3648;50.614;13.830;2023-08-06T16:43:35;18.60;99.90
7214;DHT22;3648;50.614;13.830;2023-08-06T16:46:02;18.30;99.90
7214;DHT22;3648;50.614;13.830;2023-08-06T16:48:29;18.40;99.90
7214;DHT22;3648;50.614;13.830;2023-08-06T16:51:00;18.40;99.90
7214;DHT22;3648;50.614;13.830;2023-08-06T16:53:27;18.30;99.90
7214;DHT22;3648;50.614;13.830;2023-08-06T16:55:55;18.30;99.90
7214;DHT22;3648;50.614;13.830;2023-08-06T16:58:24;18.20;99.90
7214;DHT22;3648;50.614;13.830;2023-08-06T17:00:51;18.10;99.90
7214;DHT22;3648;50.614;13.830;2023-08-06T17:03:19;18.10;99.90
7214;DHT22;3648;50.614;13.830;2023-08-06T17:05:47;18.10;99.90
7214;DHT22;3648;50.614;13.830;2023-08-06T17:08:15;18.00;99.90
7214;DHT22;3648;50.614;13.830;2023-08-06T17:10:42;18.00;99.90
7214;DHT22;3648;50.614;13.830;2023-08-06T17:13:09;18.00;99.90
7214;DHT22;3648;50.614;13.830;2023-08-06T17:15:36;18.00;99.90
7214;DHT22;3648;50.614;13.830;2023-08-06T17:18:03;17.80;99.90
7214;DHT22;3648;50.614;13.830;2023-08-06T17:20:30;17.90;99.90
7214;DHT22;3648;50.614;13.830;2023-08-06T17:22:58;17.80;99.90
7214;DHT22;3648;50.614;13.830;2023-08-06T17:25:27;17.80;99.90
7214;DHT22;3648;50.614;13.830;2023-08-06T17:27:53;17.70;99.90
7214;DHT22;3648;50.614;13.830;2023-08-06T17:30:20;17.70;99.90
7214;DHT22;3648;50.614;13.830;2023-08-06T17:32:47;17.70;99.90
7214;DHT22;3648;50.614;13.830;2023-08-06T17:35:14;17.70;99.90
7214;DHT22;3648;50.614;13.830;2023-08-06T17:37:41;17.70;99.90
7214;DHT22;3648;50.614;13.830;2023-08-06T17:40:09;17.70;99.90
7214;DHT22;3648;50.614;13.830;2023-08-06T17:42:37;17.60;99.90
7214;DHT22;3648;50.614;13.830;2023-08-06T17:45:05;17.60;99.90
7214;DHT22;3648;50.614;13.830;2023-08-06T17:47:33;17.60;99.90
7214;DHT22;3648;50.614;13.830;2023-08-06T17:50:00;17.60;99.90
7214;DHT22;3648;50.614;13.830;2023-08-06T17:52:27;17.50;99.90
7214;DHT22;3648;50.614;13.830;2023-08-06T17:54:54;17.50;99.90
7214;DHT22;3648;50.614;13.830;2023-08-06T17:57:21;17.50;99.90
7214;DHT22;3648;50.614;13.830;2023-08-06T17:59:49;17.40;99.90
7214;DHT22;3648;50.614;13.830;2023-08-06T18:02:16;17.40;99.90
7214;DHT22;3648;50.614;13.830;2023-08-06T18:04:43;17.30;99.90
7214;DHT22;3648;50.614;13.830;2023-08-06T18:07:10;17.30;99.90
7214;DHT22;3648;50.614;13.830;2023-08-06T18:09:37;17.30;99.90
7214;DHT22;3648;50.614;13.830;2023-08-06T18:12:04;17.30;99.90
7214;DHT22;3648;50.614;13.830;2023-08-06T18:14:34;17.30;99.90
7214;DHT22;3648;50.614;13.830;2023-08-06T18:17:02;17.30;99.90
7214;DHT22;3648;50.614;13.830;2023-08-06T18:19:30;17.30;99.90
7214;DHT22;3648;50.614;13.830;2023-08-06T18:21:57;17.20;99.90
7214;DHT22;3648;50.614;13.830;2023-08-06T18:24:24;17.20;99.90
7214;DHT22;3648;50.614;13.830;2023-08-06T18:26:51;17.10;99.90
7214;DHT22;3648;50.614;13.830;2023-08-06T18:29:18;17.10;99.90
7214;DHT22;3648;50.614;13.830;2023-08-06T18:31:45;17.10;99.90
7214;DHT22;3648;50.614;13.830;2023-08-06T18:34:14;17.10;99.90
7214;DHT22;3648;50.614;13.830;2023-08-06T18:36:41;17.10;99.90
7214;DHT22;3648;50.614;13.830;2023-08-06T18:39:07;17.10;99.90
7214;DHT22;3648;50.614;13.830;2023-08-06T18:41:34;17.00;99.90
7214;DHT22;3648;50.614;13.830;2023-08-06T18:44:01;17.00;99.90
7214;DHT22;3648;50.614;13.830;2023-08-06T18:46:28;17.00;99.90
7214;DHT22;3648;50.614;13.830;2023-08-06T18:48:55;17.00;99.90
7214;DHT22;3648;50.614;13.830;2023-08-06T18:51:24;16.90;99.90
7214;DHT22;3648;50.614;13.830;2023-08-06T18:53:51;16.90;99.90
7214;DHT22;3648;50.614;13.830;2023-08-06T18:56:18;16.90;99.90
7214;DHT22;3648;50.614;13.830;2023-08-06T18:58:44;16.90;99.90
7214;DHT22;3648;50.614;13.830;2023-08-06T19:01:11;16.90;99.90
7214;DHT22;3648;50.614;13.830;2023-08-06T19:03:39;16.90;99.90
7214;DHT22;3648;50.614;13.830;2023-08-06T19:06:07;16.90;99.90
7214;DHT22;3648;50.614;13.830;2023-08-06T19:08:35;16.80;99.90
7214;DHT22;3648;50.614;13.830;2023-08-06T19:11:02;16.80;99.90
7214;DHT22;3648;50.614;13.830;2023-08-06T19:13:29;16.80;99.90
7214;DHT22;3648;50.614;13.830;2023-08-06T19:15:56;16.80;99.90
7214;DHT22;3648;50.614;13.830;2023-08-06T19:18:24;16.80;99.90
7214;DHT22;3648;50.614;13.830;2023-08-06T19:20:55;16.70;99.90
7214;DHT22;3648;50.614;13.830;2023-08-06T19:23:22;16.70;99.90
7214;DHT22;3648;50.614;13.830;2023-08-06T19:25:54;16.60;99.90
7214;DHT22;3648;50.614;13.830;2023-08-06T19:28:21;16.60;99.90
7214;DHT22;3648;50.614;13.830;2023-08-06T19:30:48;16.70;99.90
7214;DHT22;3648;50.614;13.830;2023-08-06T19:33:15;16.50;99.90
7214;DHT22;3648;50.614;13.830;2023-08-06T19:35:47;16.60;99.90
7214;DHT22;3648;50.614;13.830;2023-08-06T19:38:15;16.60;99.90
7214;DHT22;3648;50.614;13.830;2023-08-06T19:40:42;16.60;99.90
7214;DHT22;3648;50.614;13.830;2023-08-06T19:43:10;16.60;99.90
7214;DHT22;3648;50.614;13.830;2023-08-06T19:45:37;16.50;99.90
7214;DHT22;3648;50.614;13.830;2023-08-06T19:48:05;16.60;1.00
7214;DHT22;3648;50.614;13.830;2023-08-06T19:50:32;16.60;99.90
7214;DHT22;3648;50.614;13.830;2023-08-06T19:53:00;16.60;99.90
7214;DHT22;3648;50.614;13.830;2023-08-06T19:55:27;16.60;99.90
7214;DHT22;3648;50.614;13.830;2023-08-06T19:57:55;16.50;99.90
7214;DHT22;3648;50.614;13.830;2023-08-06T20:00:23;16.50;99.90
7214;DHT22;3648;50.614;13.830;2023-08-06T20:02:50;16.40;99.90
7214;DHT22;3648;50.614;13.830;2023-08-06T20:05:17;16.30;99.90
7214;DHT22;3648;50.614;13.830;2023-08-06T20:07:44;16.30;1.00
7214;DHT22;3648;50.614;13.830;2023-08-06T20:10:11;16.30;1.00
7214;DHT22;3648;50.614;13.830;2023-08-06T20:12:38;16.30;1.00
7214;DHT22;3648;50.614;13.830;2023-08-06T20:15:05;16.30;1.00
7214;DHT22;3648;50.614;13.830;2023-08-06T20:17:34;16.30;1.00
7214;DHT22;3648;50.614;13.830;2023-08-06T20:20:01;16.40;1.00
7214;DHT22;3648;50.614;13.830;2023-08-06T20:22:28;16.30;1.00
7214;DHT22;3648;50.614;13.830;2023-08-06T20:24:55;16.40;1.00
7214;DHT22;3648;50.614;13.830;2023-08-06T20:27:22;16.30;1.00
7214;DHT22;3648;50.614;13.830;2023-08-06T20:29:49;16.40;1.00
7214;DHT22;3648;50.614;13.830;2023-08-06T20:32:16;16.40;1.00
7214;DHT22;3648;50.614;13.830;2023-08-06T20:34:45;16.40;99.90
7214;DHT22;3648;50.614;13.830;2023-08-06T20:37:12;16.30;99.90
7214;DHT22;3648;50.614;13.830;2023-08-06T20:39:39;16.40;1.00
7214;DHT22;3648;50.614;13.830;2023-08-06T20:42:06;16.40;99.90
7214;DHT22;3648;50.614;13.830;2023-08-06T20:44:33;16.40;99.90
7214;DHT22;3648;50.614;13.830;2023-08-06T20:47:03;16.40;99.90
7214;DHT22;3648;50.614;13.830;2023-08-06T20:49:31;16.30;99.90
7214;DHT22;3648;50.614;13.830;2023-08-06T20:51:59;16.40;99.90
7214;DHT22;3648;50.614;13.830;2023-08-06T20:54:26;16.40;99.90
7214;DHT22;3648;50.614;13.830;2023-08-06T20:56:53;16.40;99.90
7214;DHT22;3648;50.614;13.830;2023-08-06T20:59:20;16.40;99.90
7214;DHT22;3648;50.614;13.830;2023-08-06T21:01:47;16.40;99.90
7214;DHT22;3648;50.614;13.830;2023-08-06T21:04:14;16.30;99.90
7214;DHT22;3648;50.614;13.830;2023-08-06T21:06:41;16.30;99.90
7214;DHT22;3648;50.614;13.830;2023-08-06T21:09:10;16.30;99.90
7214;DHT22;3648;50.614;13.830;2023-08-06T21:11:37;16.40;99.90
7214;DHT22;3648;50.614;13.830;2023-08-06T21:14:04;16.40;99.90
7214;DHT22;3648;50.614;13.830;2023-08-06T21:16:31;16.40;99.90
7214;DHT22;3648;50.614;13.830;2023-08-06T21:18:58;16.50;99.90
7214;DHT22;3648;50.614;13.830;2023-08-06T21:21:25;16.40;99.90
7214;DHT22;3648;50.614;13.830;2023-08-06T21:23:52;16.40;99.90
7214;DHT22;3648;50.614;13.830;2023-08-06T21:26:20;16.40;99.90
7214;DHT22;3648;50.614;13.830;2023-08-06T21:28:48;16.30;99.90
7214;DHT22;3648;50.614;13.830;2023-08-06T21:31:15;16.30;1.00
7214;DHT22;3648;50.614;13.830;2023-08-06T21:33:42;16.30;1.00
7214;DHT22;3648;50.614;13.830;2023-08-06T21:36:11;16.30;1.00
7214;DHT22;3648;50.614;13.830;2023-08-06T21:38:40;16.30;1.00
7214;DHT22;3648;50.614;13.830;2023-08-06T21:41:09;16.30;1.00
7214;DHT22;3648;50.614;13.830;2023-08-06T21:43:40;16.30;1.00
7214;DHT22;3648;50.614;13.830;2023-08-06T21:46:08;16.30;1.00
7214;DHT22;3648;50.614;13.830;2023-08-06T21:48:37;16.20;1.00
7214;DHT22;3648;50.614;13.830;2023-08-06T21:51:06;16.20;1.00
7214;DHT22;3648;50.614;13.830;2023-08-06T21:53:34;16.20;1.00
7214;DHT22;3648;50.614;13.830;2023-08-06T21:56:03;16.10;1.00
7214;DHT22;3648;50.614;13.830;2023-08-06T21:58:30;16.10;1.00
7214;DHT22;3648;50.614;13.830;2023-08-06T22:00:59;16.10;1.00
7214;DHT22;3648;50.614;13.830;2023-08-06T22:03:26;16.10;1.00
7214;DHT22;3648;50.614;13.830;2023-08-06T22:05:53;16.10;1.00